Homer, Michigan
Current Conditions -  °F | °C
As of 3:14 PM on Sunday 21 Dec 2014 (Local Time) from KRMY Reporting Station
Overcast Overcast  
Wind Chill: -4°   Ceiling: 5000
Heat Index:   Visibility: 10mi
Dew Point: -4°   Wind: 8mph
Humidity: 75%   Direction: 160°SSE
Pressure: 30.17"   Gusts: NA
Location:  42.15°N, 84.81°W
Report Text: KRMY 212014Z AUTO 16007KT 10SM OVC050 00/M04 A3017 RMK AO2 T00001040
Loading
Personal Weather Stations






























Interactive Weather Map New forecast layout! Learn more

10-Day Weather Forecast

Advertisements
Track Severe Weather on mobile